createdAt,value
2019-06-08T00:00:52.086Z,9.63
2019-06-08T00:03:20.774Z,9.38
2019-06-08T00:05:49.337Z,8.85
2019-06-08T00:08:19.050Z,8.85
2019-06-08T00:10:47.643Z,8.70
2019-06-08T00:13:17.031Z,8.23
2019-06-08T00:15:45.656Z,8.40
2019-06-08T00:18:15.255Z,7.87
2019-06-08T00:20:43.789Z,7.87
2019-06-08T00:23:13.650Z,7.97
2019-06-08T00:25:42.229Z,8.33
2019-06-08T00:28:10.671Z,8.73
2019-06-08T00:30:39.255Z,8.58
2019-06-08T00:33:07.657Z,8.88
2019-06-08T00:35:36.102Z,8.28
2019-06-08T00:38:04.528Z,7.85
2019-06-08T00:40:32.967Z,7.53
2019-06-08T00:43:01.398Z,8.25
2019-06-08T00:45:29.894Z,7.30
2019-06-08T00:47:58.384Z,7.20
2019-06-08T00:50:26.775Z,6.87
2019-06-08T00:52:55.204Z,6.78
2019-06-08T00:55:23.807Z,6.20
2019-06-08T00:57:52.248Z,6.55
2019-06-08T01:00:22.519Z,5.97
2019-06-08T01:02:51.139Z,5.60
2019-06-08T01:05:19.950Z,5.62
2019-06-08T01:07:48.479Z,5.40
2019-06-08T01:10:17.345Z,5.47
2019-06-08T01:12:45.792Z,5.53
2019-06-08T01:15:15.411Z,4.90
2019-06-08T01:17:43.856Z,5.20
2019-06-08T01:20:12.722Z,5.12
2019-06-08T01:22:41.181Z,4.83
2019-06-08T01:25:10.115Z,4.80
2019-06-08T01:27:38.553Z,4.83
2019-06-08T01:30:08.889Z,5.33
2019-06-08T01:32:37.485Z,4.87
2019-06-08T01:35:06.367Z,4.78
2019-06-08T01:37:34.872Z,5.37
2019-06-08T01:40:05.013Z,5.20
2019-06-08T01:42:33.444Z,4.85
2019-06-08T01:45:02.177Z,5.42
2019-06-08T01:47:32.318Z,4.97
2019-06-08T01:50:00.855Z,4.95
2019-06-08T01:52:29.291Z,5.10
2019-06-08T01:54:57.790Z,5.65
2019-06-08T01:57:27.182Z,5.47
2019-06-08T01:59:55.754Z,5.30
2019-06-08T02:02:24.211Z,5.10
2019-06-08T02:04:52.640Z,5.10
2019-06-08T02:07:21.167Z,5.03
2019-06-08T02:09:49.607Z,4.92
2019-06-08T02:12:18.040Z,5.20
2019-06-08T02:14:46.764Z,5.00
2019-06-08T02:17:15.206Z,5.10
2019-06-08T02:19:43.651Z,5.60
2019-06-08T02:22:12.132Z,5.80
2019-06-08T02:24:40.612Z,5.33
2019-06-08T02:27:09.054Z,5.67
2019-06-08T02:29:37.589Z,4.90
2019-06-08T02:32:06.012Z,4.87
2019-06-08T02:34:35.851Z,5.60
2019-06-08T02:37:04.762Z,4.85
2019-06-08T02:39:35.299Z,5.33
2019-06-08T02:42:03.327Z,5.25
2019-06-08T02:44:32.211Z,5.03
2019-06-08T02:47:00.804Z,5.05
2019-06-08T02:49:30.733Z,5.05
2019-06-08T02:52:01.172Z,5.22
2019-06-08T02:54:30.113Z,4.97
2019-06-08T02:59:29.426Z,5.12
2019-06-08T03:01:59.866Z,5.70
2019-06-08T03:04:32.268Z,5.08
2019-06-08T03:07:03.716Z,4.92
2019-06-08T03:09:34.822Z,5.40
2019-06-08T03:12:06.831Z,5.10
2019-06-08T03:14:35.606Z,5.25
2019-06-08T03:17:05.628Z,5.15
2019-06-08T03:19:35.681Z,5.67
2019-06-08T03:22:04.195Z,5.12
2019-06-08T03:24:34.385Z,5.20
2019-06-08T03:29:30.421Z,5.05
2019-06-08T03:31:59.259Z,4.90
2019-06-08T03:34:27.714Z,4.60
2019-06-08T03:36:57.514Z,5.00
2019-06-08T03:39:26.237Z,4.95
2019-06-08T03:43:30.042Z,5.20
2019-06-08T03:44:24.846Z,5.72
2019-06-08T03:46:53.275Z,5.10
2019-06-08T03:49:40.271Z,5.30
2019-06-08T03:51:51.853Z,4.90
2019-06-08T03:54:20.319Z,4.95
2019-06-08T03:56:48.779Z,5.00
2019-06-08T03:59:17.225Z,5.05
2019-06-08T04:01:46.138Z,4.90
2019-06-08T04:04:14.775Z,5.20
2019-06-08T04:06:43.806Z,4.90
2019-06-08T04:09:12.297Z,4.67
2019-06-08T04:11:42.351Z,4.70
2019-06-08T04:14:10.880Z,4.70
2019-06-08T04:16:40.194Z,4.75
2019-06-08T04:19:09.024Z,4.72
2019-06-08T04:21:37.903Z,4.60
2019-06-08T04:24:06.373Z,4.65
2019-06-08T04:26:34.802Z,4.90
2019-06-08T04:29:03.278Z,5.05
2019-06-08T04:31:31.708Z,4.40
2019-06-08T04:34:00.143Z,4.75
2019-06-08T04:36:28.571Z,4.40
2019-06-08T04:38:57.116Z,4.58
2019-06-08T04:41:25.532Z,4.78
2019-06-08T04:43:53.999Z,4.22
2019-06-08T04:46:22.436Z,4.72
2019-06-08T04:48:50.864Z,4.17
2019-06-08T04:51:19.318Z,4.50
2019-06-08T04:53:49.587Z,4.15
2019-06-08T04:56:17.883Z,4.15
2019-06-08T04:58:48.318Z,4.20
2019-06-08T05:01:16.493Z,4.75
2019-06-08T05:03:45.605Z,4.50
2019-06-08T05:06:15.183Z,4.60
2019-06-08T05:08:45.133Z,4.40
2019-06-08T05:11:13.831Z,4.40
2019-06-08T05:13:43.340Z,4.10
2019-06-08T05:16:11.876Z,4.40
2019-06-08T05:18:41.367Z,4.70
2019-06-08T05:21:09.898Z,4.62
2019-06-08T05:23:39.270Z,4.40
2019-06-08T05:26:07.748Z,4.50
2019-06-08T05:28:36.180Z,4.50
2019-06-08T05:31:04.603Z,4.90
2019-06-08T05:33:33.042Z,4.80
2019-06-08T05:36:01.473Z,4.45
2019-06-08T05:38:29.917Z,4.20
2019-06-08T05:40:58.337Z,4.50
2019-06-08T05:43:26.781Z,4.40
2019-06-08T05:45:55.201Z,4.22
2019-06-08T05:48:23.630Z,4.50
2019-06-08T05:51:03.392Z,4.53
2019-06-08T05:55:50.279Z,4.10
2019-06-08T05:58:18.825Z,4.10
2019-06-08T06:00:48.333Z,4.25
2019-06-08T06:03:16.892Z,4.37
2019-06-08T06:05:46.481Z,4.25
2019-06-08T06:08:18.978Z,4.25
2019-06-08T06:10:45.151Z,4.28
2019-06-08T06:13:13.658Z,4.33
2019-06-08T06:15:42.987Z,4.20
2019-06-08T06:20:39.528Z,4.35
2019-06-08T06:23:07.981Z,4.67
2019-06-08T06:25:36.407Z,4.40
2019-06-08T06:28:06.409Z,4.00
2019-06-08T06:33:02.814Z,4.30
2019-06-08T06:35:31.234Z,4.42
2019-06-08T06:37:59.659Z,4.70
2019-06-08T06:40:28.098Z,4.37
2019-06-08T06:42:56.552Z,4.45
2019-06-08T06:45:25.026Z,4.05
2019-06-08T06:47:53.428Z,4.53
2019-06-08T06:50:21.859Z,4.45
2019-06-08T06:52:50.787Z,4.92
2019-06-08T06:55:19.470Z,4.62
2019-06-08T06:57:49.181Z,4.95
2019-06-08T07:00:20.858Z,4.33
2019-06-08T07:02:50.030Z,4.40
2019-06-08T07:05:18.493Z,4.10
2019-06-08T07:07:48.102Z,4.28
2019-06-08T07:10:16.636Z,4.35
2019-06-08T07:12:45.077Z,4.70
2019-06-08T07:15:16.557Z,4.67
2019-06-08T07:17:46.065Z,4.58
2019-06-08T07:20:14.699Z,4.60
2019-06-08T07:22:43.118Z,4.70
2019-06-08T07:25:11.725Z,4.53
2019-06-08T07:27:40.155Z,4.53
2019-06-08T07:30:09.048Z,4.58
2019-06-08T07:32:37.465Z,4.40
2019-06-08T07:35:09.005Z,4.40
2019-06-08T07:37:37.444Z,4.60
2019-06-08T07:40:07.218Z,4.37
2019-06-08T07:42:35.637Z,4.53
2019-06-08T07:45:05.593Z,4.40
2019-06-08T07:47:34.048Z,4.08
2019-06-08T07:50:04.620Z,4.28
2019-06-08T07:52:32.654Z,4.60
2019-06-08T07:55:01.087Z,4.20
2019-06-08T07:57:29.516Z,4.42
2019-06-08T07:59:57.942Z,4.50
2019-06-08T08:02:26.397Z,4.70
2019-06-08T08:04:54.830Z,4.50
2019-06-08T08:07:23.264Z,4.53
2019-06-08T08:09:53.172Z,4.22
2019-06-08T08:12:21.750Z,4.72
2019-06-08T08:14:51.305Z,4.50
2019-06-08T08:19:48.916Z,4.40
2019-06-08T08:22:23.106Z,4.30
2019-06-08T08:24:50.441Z,4.50
2019-06-08T08:27:18.085Z,4.40
2019-06-08T08:29:47.579Z,4.80
2019-06-08T08:32:18.654Z,4.30
2019-06-08T08:34:47.617Z,4.92
2019-06-08T08:39:47.386Z,4.72
2019-06-08T08:42:17.955Z,4.60
2019-06-08T08:44:48.493Z,4.80
2019-06-08T08:47:18.532Z,4.65
2019-06-08T08:49:47.972Z,4.62
2019-06-08T08:52:17.463Z,4.20
2019-06-08T08:54:47.504Z,4.65
2019-06-08T08:57:18.164Z,4.20
2019-06-08T08:59:47.651Z,4.20
2019-06-08T09:02:20.764Z,4.45
2019-06-08T09:04:47.709Z,4.12
2019-06-08T09:07:18.206Z,4.55
2019-06-08T09:09:48.192Z,4.40
2019-06-08T09:12:18.274Z,4.92
2019-06-08T09:14:47.950Z,4.25
2019-06-08T09:17:18.078Z,4.42
2019-06-08T09:19:48.062Z,4.42
2019-06-08T09:22:18.727Z,4.57
2019-06-08T09:24:48.595Z,4.40
2019-06-08T09:27:17.879Z,4.30
2019-06-08T09:29:48.189Z,4.20
2019-06-08T09:32:17.959Z,4.40
2019-06-08T09:34:48.331Z,4.22
2019-06-08T09:37:18.508Z,4.10
2019-06-08T09:42:20.937Z,4.72
2019-06-08T09:44:48.300Z,3.90
2019-06-08T09:47:18.145Z,4.60
2019-06-08T09:49:48.000Z,4.60
2019-06-08T09:52:18.384Z,4.87
2019-06-08T09:54:48.129Z,4.40
2019-06-08T09:57:18.876Z,4.20
2019-06-08T09:59:48.202Z,4.60
2019-06-08T10:02:18.385Z,4.50
2019-06-08T10:07:18.704Z,4.70
2019-06-08T10:09:47.361Z,4.62
2019-06-08T10:12:18.194Z,4.33
2019-06-08T10:14:48.881Z,4.20
2019-06-08T10:17:20.532Z,4.47
2019-06-08T10:19:47.684Z,4.58
2019-06-08T10:22:18.180Z,4.53
2019-06-08T10:24:48.839Z,4.50
2019-06-08T10:27:18.759Z,4.17
2019-06-08T10:29:48.343Z,4.35
2019-06-08T10:32:18.591Z,4.22
2019-06-08T10:34:48.094Z,4.22
2019-06-08T10:37:18.638Z,4.10
2019-06-08T10:39:47.862Z,4.65
2019-06-08T10:42:17.980Z,4.45
2019-06-08T10:44:46.548Z,3.95
2019-06-08T10:47:14.998Z,4.05
2019-06-08T10:49:43.473Z,4.03
2019-06-08T10:52:12.450Z,4.45
2019-06-08T10:54:40.917Z,4.00
2019-06-08T10:57:09.951Z,4.10
2019-06-08T10:59:40.297Z,4.53
2019-06-08T11:02:13.709Z,3.98
2019-06-08T11:07:13.747Z,4.17
2019-06-08T11:12:11.278Z,4.47
2019-06-08T11:14:38.274Z,3.85
2019-06-08T11:17:09.549Z,4.33
2019-06-08T11:19:37.657Z,4.70
2019-06-08T11:22:12.165Z,4.40
2019-06-08T11:24:38.597Z,4.45
2019-06-08T11:27:10.610Z,4.30
2019-06-08T11:29:38.394Z,4.67
2019-06-08T11:32:10.947Z,3.80
2019-06-08T11:34:37.811Z,4.30
2019-06-08T11:37:09.368Z,4.00
2019-06-08T11:39:38.169Z,4.20
2019-06-08T11:42:09.809Z,3.75
2019-06-08T11:44:38.965Z,4.10
2019-06-08T11:47:09.759Z,4.10
2019-06-08T11:49:37.144Z,3.80
2019-06-08T11:52:06.863Z,3.90
2019-06-08T11:54:40.005Z,3.77
2019-06-08T11:59:34.053Z,3.98
2019-06-08T12:02:03.549Z,3.90
2019-06-08T12:04:32.108Z,4.17
2019-06-08T12:07:00.534Z,4.62
2019-06-08T12:09:28.961Z,4.08
2019-06-08T12:11:58.154Z,4.15
2019-06-08T12:14:26.627Z,3.83
2019-06-08T12:16:55.055Z,3.98
2019-06-08T12:19:23.481Z,4.35
2019-06-08T12:21:51.923Z,4.20
2019-06-08T12:24:20.617Z,4.10
2019-06-08T12:26:52.725Z,4.40
2019-06-08T12:31:47.545Z,4.00
2019-06-08T12:34:18.337Z,4.40
2019-06-08T12:36:48.067Z,4.03
2019-06-08T12:41:47.887Z,4.13
2019-06-08T12:44:17.391Z,4.03
2019-06-08T12:46:48.341Z,4.17
2019-06-08T12:49:18.661Z,4.00
2019-06-08T12:51:50.788Z,4.53
2019-06-08T12:54:18.960Z,4.25
2019-06-08T12:59:20.871Z,4.05
2019-06-08T13:01:48.438Z,4.00
2019-06-08T13:06:48.223Z,3.90
2019-06-08T13:11:45.452Z,3.73
2019-06-08T13:14:14.730Z,4.12
2019-06-08T13:16:43.198Z,4.00
2019-06-08T13:19:13.085Z,3.90
2019-06-08T13:21:41.779Z,3.80
2019-06-08T13:24:11.315Z,4.00
2019-06-08T13:26:39.912Z,3.57
2019-06-08T13:29:09.190Z,4.08
2019-06-08T13:31:38.528Z,3.87
2019-06-08T13:34:07.806Z,4.08
2019-06-08T13:36:40.243Z,4.58
2019-06-08T13:41:38.396Z,3.80
2019-06-08T13:46:37.916Z,3.95
2019-06-08T13:49:08.271Z,4.47
2019-06-08T13:54:08.338Z,4.22
2019-06-08T13:56:38.479Z,4.40
2019-06-08T13:59:07.943Z,3.92
2019-06-08T14:01:37.894Z,4.25
2019-06-08T14:04:08.810Z,3.90
2019-06-08T14:06:36.634Z,4.33
2019-06-08T14:09:08.323Z,3.90
2019-06-08T14:11:36.915Z,4.35
2019-06-08T14:14:05.376Z,4.37
2019-06-08T14:16:33.812Z,3.90
2019-06-08T14:19:02.237Z,4.30
2019-06-08T14:21:38.776Z,4.65
2019-06-08T14:24:00.836Z,4.12
2019-06-08T14:26:29.677Z,4.25
2019-06-08T14:29:00.786Z,4.20
2019-06-08T14:31:31.574Z,4.30
2019-06-08T14:33:58.499Z,4.60
2019-06-08T14:36:29.073Z,4.28
2019-06-08T14:39:02.005Z,4.33
2019-06-08T14:41:31.179Z,4.12
2019-06-08T14:43:58.627Z,4.10
2019-06-08T14:46:28.761Z,3.90
2019-06-08T14:48:58.396Z,3.98
2019-06-08T14:51:30.183Z,3.95
2019-06-08T14:53:58.770Z,4.35
2019-06-08T14:56:29.671Z,4.30
2019-06-08T14:58:57.636Z,3.95
2019-06-08T15:03:58.577Z,4.10
2019-06-08T15:08:58.192Z,4.03
2019-06-08T15:11:28.807Z,3.90
2019-06-08T15:16:26.271Z,4.20
2019-06-08T15:18:54.695Z,3.87
2019-06-08T15:21:25.545Z,3.98
2019-06-08T15:23:53.569Z,3.50
2019-06-08T15:26:29.040Z,4.10
2019-06-08T15:28:52.553Z,3.75
2019-06-08T15:31:21.165Z,4.30
2019-06-08T15:33:49.639Z,4.50
2019-06-08T15:36:20.499Z,4.50
2019-06-08T15:38:48.269Z,4.30
2019-06-08T15:41:18.134Z,4.03
2019-06-08T15:43:48.094Z,4.12
2019-06-08T15:46:18.353Z,4.03
2019-06-08T15:51:16.381Z,3.90
2019-06-08T15:53:44.825Z,3.85
2019-06-08T15:56:13.246Z,3.98
2019-06-08T15:58:41.712Z,4.90
2019-06-08T16:01:10.142Z,4.00
2019-06-08T16:03:38.595Z,4.45
2019-06-08T16:06:07.029Z,3.87
2019-06-08T16:08:37.820Z,4.33
2019-06-08T16:13:33.282Z,4.22
2019-06-08T16:16:01.726Z,4.37
2019-06-08T16:18:31.636Z,4.60
2019-06-08T16:21:00.172Z,4.20
2019-06-08T16:23:29.928Z,4.22
2019-06-08T16:25:58.431Z,4.87
2019-06-08T16:28:27.724Z,4.33
2019-06-08T16:30:56.179Z,4.30
2019-06-08T16:33:24.612Z,4.35
2019-06-08T16:35:53.162Z,4.30
2019-06-08T16:38:21.595Z,4.30
2019-06-08T16:40:50.025Z,4.37
2019-06-08T16:43:18.491Z,4.17
2019-06-08T16:45:46.927Z,4.80
2019-06-08T16:48:15.380Z,6.97
2019-06-08T16:50:43.810Z,4.80
2019-06-08T16:53:12.233Z,6.47
2019-06-08T16:55:40.699Z,6.15
2019-06-08T16:58:09.153Z,5.42
2019-06-08T17:00:40.744Z,5.00
2019-06-08T17:05:35.396Z,4.95
2019-06-08T17:08:03.836Z,6.30
2019-06-08T17:10:32.589Z,5.08
2019-06-08T17:13:01.059Z,4.73
2019-06-08T17:15:29.958Z,4.90
2019-06-08T17:17:58.707Z,4.77
2019-06-08T17:20:27.145Z,5.20
2019-06-08T17:22:55.574Z,5.92
2019-06-08T17:25:24.016Z,5.95
2019-06-08T17:27:52.495Z,5.35
2019-06-08T17:30:21.025Z,5.53
2019-06-08T17:32:49.441Z,5.20
2019-06-08T17:35:17.895Z,5.65
2019-06-08T17:37:46.373Z,4.72
2019-06-08T17:40:14.964Z,5.22
2019-06-08T17:42:43.888Z,5.20
2019-06-08T17:45:12.661Z,4.47
2019-06-08T17:47:41.101Z,5.20
2019-06-08T17:50:10.072Z,4.97
2019-06-08T17:52:38.930Z,5.95
2019-06-08T17:55:07.884Z,5.60
2019-06-08T17:57:47.173Z,5.22
2019-06-08T18:00:08.736Z,5.62
2019-06-08T18:02:40.268Z,6.45
2019-06-08T18:05:08.996Z,5.60
2019-06-08T18:07:39.982Z,6.27
2019-06-08T18:10:07.668Z,6.08
2019-06-08T18:12:39.229Z,5.62
2019-06-08T18:15:07.922Z,6.55
2019-06-08T18:20:12.790Z,5.65
2019-06-08T18:22:43.980Z,6.42
2019-06-08T18:25:11.653Z,5.90
2019-06-08T18:27:42.359Z,5.57
2019-06-08T18:30:12.061Z,6.00
2019-06-08T18:32:42.086Z,6.28
2019-06-08T18:35:11.156Z,6.25
2019-06-08T18:37:40.961Z,6.10
2019-06-08T18:40:11.398Z,6.40
2019-06-08T18:42:41.518Z,8.18
2019-06-08T18:45:10.236Z,8.03
2019-06-08T18:47:40.828Z,8.13
2019-06-08T18:50:09.713Z,7.20
2019-06-08T18:52:41.627Z,7.80
2019-06-08T18:55:08.583Z,7.67
2019-06-08T18:57:38.475Z,7.53
2019-06-08T19:00:11.575Z,6.30
2019-06-08T19:02:41.985Z,6.58
2019-06-08T19:05:09.308Z,6.47
2019-06-08T19:07:39.139Z,5.80
2019-06-08T19:10:08.347Z,6.10
2019-06-08T19:12:39.577Z,6.22
2019-06-08T19:15:11.177Z,6.10
2019-06-08T19:17:43.899Z,6.05
2019-06-08T19:20:08.125Z,6.60
2019-06-08T19:22:40.866Z,6.15
2019-06-08T19:25:07.803Z,7.00
2019-06-08T19:27:40.647Z,7.35
2019-06-08T19:30:06.797Z,8.10
2019-06-08T19:32:37.673Z,6.00
2019-06-08T19:35:07.351Z,7.40
2019-06-08T19:37:35.849Z,7.47
2019-06-08T19:40:07.439Z,7.17
2019-06-08T19:42:44.744Z,7.08
2019-06-08T19:45:08.777Z,6.80
2019-06-08T19:47:36.605Z,6.33
2019-06-08T19:50:07.838Z,6.15
2019-06-08T19:52:39.969Z,6.83
2019-06-08T19:55:08.038Z,6.12
2019-06-08T19:57:36.581Z,6.10
2019-06-08T20:00:07.494Z,6.35
2019-06-08T20:02:35.980Z,5.75
2019-06-08T20:05:07.626Z,5.97
2019-06-08T20:07:37.598Z,6.22
2019-06-08T20:10:08.098Z,6.03
2019-06-08T20:12:37.287Z,6.05
2019-06-08T20:15:09.813Z,5.83
2019-06-08T20:17:38.252Z,6.25
2019-06-08T20:20:10.646Z,6.10
2019-06-08T20:22:37.917Z,5.97
2019-06-08T20:25:10.420Z,6.08
2019-06-08T20:27:37.599Z,6.80
2019-06-08T20:30:09.573Z,6.17
2019-06-08T20:32:37.865Z,6.37
2019-06-08T20:35:08.125Z,6.40
2019-06-08T20:37:37.701Z,6.47
2019-06-08T20:40:13.640Z,6.45
2019-06-08T20:45:08.254Z,6.55
2019-06-08T20:50:07.541Z,6.25
2019-06-08T20:52:37.758Z,6.42
2019-06-08T20:55:08.018Z,6.17
2019-06-08T20:57:36.406Z,6.80
2019-06-08T21:00:11.615Z,7.17
2019-06-08T21:02:39.053Z,6.80
2019-06-08T21:05:08.348Z,6.15
2019-06-08T21:07:37.234Z,5.80
2019-06-08T21:10:08.560Z,5.95
2019-06-08T21:12:37.978Z,6.78
2019-06-08T21:15:07.614Z,6.47
2019-06-08T21:17:38.211Z,5.37
2019-06-08T21:20:08.560Z,6.55
2019-06-08T21:22:36.462Z,5.45
2019-06-08T21:25:08.661Z,5.40
2019-06-08T21:27:38.461Z,5.55
2019-06-08T21:32:38.002Z,5.60
2019-06-08T21:35:07.612Z,5.72
2019-06-08T21:37:37.709Z,5.43
2019-06-08T21:40:08.461Z,6.00
2019-06-08T21:42:37.241Z,5.33
2019-06-08T21:45:09.513Z,5.47
2019-06-08T21:47:37.842Z,5.30
2019-06-08T21:50:08.066Z,5.58
2019-06-08T21:52:36.659Z,6.22
2019-06-08T21:55:07.292Z,5.53
2019-06-08T21:57:37.142Z,5.70
2019-06-08T22:00:27.005Z,5.95
2019-06-08T22:02:38.230Z,5.75
2019-06-08T22:05:08.240Z,5.55
2019-06-08T22:10:07.587Z,5.50
2019-06-08T22:12:40.081Z,5.45
2019-06-08T22:15:09.374Z,5.78
2019-06-08T22:17:38.449Z,5.62
2019-06-08T22:20:08.214Z,5.22
2019-06-08T22:22:37.787Z,5.40
2019-06-08T22:25:08.286Z,5.78
2019-06-08T22:27:38.125Z,5.30
2019-06-08T22:30:13.440Z,5.47
2019-06-08T22:32:38.740Z,5.83
2019-06-08T22:35:08.163Z,5.20
2019-06-08T22:37:37.941Z,5.10
2019-06-08T22:40:08.282Z,4.80
2019-06-08T22:42:37.581Z,4.83
2019-06-08T22:45:08.369Z,5.92
2019-06-08T22:47:38.733Z,5.20
2019-06-08T22:50:07.924Z,4.70
2019-06-08T22:52:37.552Z,4.80
2019-06-08T22:55:10.235Z,4.60
2019-06-08T22:57:37.670Z,5.25
2019-06-08T23:00:16.734Z,4.60
2019-06-08T23:02:40.016Z,4.65
2019-06-08T23:05:09.473Z,4.20
2019-06-08T23:07:37.967Z,4.50
2019-06-08T23:10:08.953Z,4.65
2019-06-08T23:12:38.304Z,4.47
2019-06-08T23:15:08.378Z,4.58
2019-06-08T23:17:38.703Z,4.53
2019-06-08T23:20:08.678Z,4.75
2019-06-08T23:22:38.403Z,4.65
2019-06-08T23:25:09.469Z,4.47
2019-06-08T23:27:38.220Z,4.58
2019-06-08T23:30:10.199Z,4.65
2019-06-08T23:32:38.777Z,4.70
2019-06-08T23:35:09.387Z,4.62
2019-06-08T23:37:38.097Z,4.50
2019-06-08T23:40:07.594Z,4.50
2019-06-08T23:42:38.314Z,4.87
2019-06-08T23:45:10.167Z,4.78
2019-06-08T23:47:38.568Z,4.70
2019-06-08T23:50:10.055Z,4.90
2019-06-08T23:52:38.305Z,4.85
2019-06-08T23:55:10.506Z,4.50
2019-06-08T23:57:38.035Z,4.83
